Tomah, WI (54660)

1:01 AM CST on December 25, 2014 (GMT -0600)
WIDOT Tomah - I-94 @ USH 12 | Change Station
CLOSE
Current Station
Personal Weather Station
Location: Tomah, WI
Elevation: 990 ft
Nearby Weather Stations

Elev 990 ft 44.02 °N, 90.50 °W | Updated 57 minutes ago

Overcast
Overcast
33 °F
Feels Like 27 °F
N
6
Wind Variable Wind from SSE
Gusts 10.0 mph

Today
High -- | Low -- °F
--% Chance of Precip.
Yesterday
High -- | Low -- °F
Precip. -- in
7:35 AM 4:28 PM
Waxing Crescent, 14% visible
Pressure 29.66 in
Visibility 10.0 miles
Clouds Overcast 2400 ft
Windchill 27 °F
Dew Point 32 °F
Humidity 94%
Rainfall -999.00 in
Snow Depth Not available.
UV 0 out of 12
Pollen .10 out of 12
Air Quality Not available.
Flu Activity Not available.
METAR KVOK 250658Z AUTO 27009KT 10SM OVC024 01/01 A2962 RMK AO2 SLP042 T00080008

More Conditions Fewer Conditions

Pressure 29.66 in
Visibility 10.0 miles
Clouds Overcast 2400 ft
Windchill 27 °F
Dew Point 32 °F
Humidity 94%
Rainfall -999.00 in
Snow Depth Not available.
UV 0 out of 12
Pollen .10 out of 12
Air Quality Not available.
Flu Activity Not available.
METAR KVOK 250658Z AUTO 27009KT 10SM OVC024 01/01 A2962 RMK AO2 SLP042 T00080008

More Conditions Fewer Conditions

10-Day Weather Forecast

Almanac

Astronomy

Dec. 25, 2014 Rise Set
Actual Time
Civil Twilight
Nautical Twilight
Astronomical Twilight
Moon
Length of Visible Light
Length of Day
Tomorrow will be .
, % of the Moon is Illuminated

Today's Extremes

State Highs State Lows

Community

WunderPhotos

Upload Photos

1,780,250 photos uploaded!

WunderBlogs® & News

Nearby

Air Quality

  Air Quality AQ Index Pollutant
Not available.

Snow Depth

Station Depth Elevation

Earthquake Activity

City Distance Mag. Time & Date
Minimum magnitude displayed is 2.5.

Coastal Water Temperatures

Place Temperature

Nearby Weather Stations